sensor_id;sensor_type;location;lat;lon;timestamp;P1;durP1;ratioP1;P2;durP2;ratioP2
19231;SDS011;9750;48.730;10.294;2023-06-04T00:02:11;5.50;;;3.60;;
19231;SDS011;9750;48.730;10.294;2023-06-04T00:04:38;4.20;;;3.80;;
19231;SDS011;9750;48.730;10.294;2023-06-04T00:07:07;5.97;;;3.93;;
19231;SDS011;9750;48.730;10.294;2023-06-04T00:09:34;6.07;;;4.10;;
19231;SDS011;9750;48.730;10.294;2023-06-04T00:12:01;4.30;;;3.90;;
19231;SDS011;9750;48.730;10.294;2023-06-04T00:14:29;3.87;;;3.47;;
19231;SDS011;9750;48.730;10.294;2023-06-04T00:16:56;4.33;;;3.27;;
19231;SDS011;9750;48.730;10.294;2023-06-04T00:19:24;4.67;;;3.43;;
19231;SDS011;9750;48.730;10.294;2023-06-04T00:21:51;6.23;;;3.63;;
19231;SDS011;9750;48.730;10.294;2023-06-04T00:24:20;4.70;;;3.33;;
19231;SDS011;9750;48.730;10.294;2023-06-04T00:26:47;3.37;;;3.00;;
19231;SDS011;9750;48.730;10.294;2023-06-04T00:29:14;4.50;;;3.47;;
19231;SDS011;9750;48.730;10.294;2023-06-04T00:31:41;4.53;;;3.23;;
19231;SDS011;9750;48.730;10.294;2023-06-04T00:34:09;3.83;;;3.30;;
19231;SDS011;9750;48.730;10.294;2023-06-04T00:36:37;3.10;;;2.80;;
19231;SDS011;9750;48.730;10.294;2023-06-04T00:39:04;4.17;;;3.00;;
19231;SDS011;9750;48.730;10.294;2023-06-04T00:41:32;3.47;;;2.97;;
19231;SDS011;9750;48.730;10.294;2023-06-04T00:44:00;5.13;;;3.23;;
19231;SDS011;9750;48.730;10.294;2023-06-04T00:46:27;5.83;;;3.20;;
19231;SDS011;9750;48.730;10.294;2023-06-04T00:48:56;6.20;;;2.67;;
19231;SDS011;9750;48.730;10.294;2023-06-04T00:51:23;3.77;;;3.03;;
19231;SDS011;9750;48.730;10.294;2023-06-04T00:53:52;7.13;;;2.97;;
19231;SDS011;9750;48.730;10.294;2023-06-04T00:56:19;3.87;;;3.43;;
19231;SDS011;9750;48.730;10.294;2023-06-04T00:58:48;5.03;;;3.10;;
19231;SDS011;9750;48.730;10.294;2023-06-04T01:01:20;4.53;;;3.07;;
19231;SDS011;9750;48.730;10.294;2023-06-04T01:03:53;4.47;;;2.97;;
19231;SDS011;9750;48.730;10.294;2023-06-04T01:06:28;4.50;;;3.00;;
19231;SDS011;9750;48.730;10.294;2023-06-04T01:09:01;4.27;;;3.30;;
19231;SDS011;9750;48.730;10.294;2023-06-04T01:11:30;5.33;;;3.00;;
19231;SDS011;9750;48.730;10.294;2023-06-04T01:14:02;7.03;;;3.47;;
19231;SDS011;9750;48.730;10.294;2023-06-04T01:16:31;4.33;;;3.00;;
19231;SDS011;9750;48.730;10.294;2023-06-04T01:19:01;4.23;;;3.30;;
19231;SDS011;9750;48.730;10.294;2023-06-04T01:21:34;4.50;;;2.70;;
19231;SDS011;9750;48.730;10.294;2023-06-04T01:24:04;3.10;;;2.80;;
19231;SDS011;9750;48.730;10.294;2023-06-04T01:26:33;5.40;;;3.10;;
19231;SDS011;9750;48.730;10.294;2023-06-04T01:29:03;4.63;;;3.20;;
19231;SDS011;9750;48.730;10.294;2023-06-04T01:31:30;4.97;;;3.20;;
19231;SDS011;9750;48.730;10.294;2023-06-04T01:33:58;4.27;;;3.20;;
19231;SDS011;9750;48.730;10.294;2023-06-04T01:36:25;6.70;;;3.07;;
19231;SDS011;9750;48.730;10.294;2023-06-04T01:38:53;3.93;;;3.30;;
19231;SDS011;9750;48.730;10.294;2023-06-04T01:41:20;3.60;;;3.20;;
19231;SDS011;9750;48.730;10.294;2023-06-04T01:43:47;6.40;;;2.93;;
19231;SDS011;9750;48.730;10.294;2023-06-04T01:46:16;3.73;;;2.77;;
19231;SDS011;9750;48.730;10.294;2023-06-04T01:48:43;3.63;;;2.80;;
19231;SDS011;9750;48.730;10.294;2023-06-04T01:51:14;3.00;;;2.70;;
19231;SDS011;9750;48.730;10.294;2023-06-04T01:53:41;4.10;;;2.80;;
19231;SDS011;9750;48.730;10.294;2023-06-04T01:56:08;4.43;;;3.13;;
19231;SDS011;9750;48.730;10.294;2023-06-04T01:58:36;3.43;;;2.70;;
19231;SDS011;9750;48.730;10.294;2023-06-04T02:01:03;4.00;;;2.30;;
19231;SDS011;9750;48.730;10.294;2023-06-04T02:03:33;2.90;;;2.40;;
19231;SDS011;9750;48.730;10.294;2023-06-04T02:06:02;3.27;;;2.90;;
19231;SDS011;9750;48.730;10.294;2023-06-04T02:08:32;3.73;;;2.63;;
19231;SDS011;9750;48.730;10.294;2023-06-04T02:11:00;3.07;;;2.77;;
19231;SDS011;9750;48.730;10.294;2023-06-04T02:13:28;3.20;;;2.53;;
19231;SDS011;9750;48.730;10.294;2023-06-04T02:15:55;3.33;;;2.63;;
19231;SDS011;9750;48.730;10.294;2023-06-04T02:18:22;2.80;;;2.50;;
19231;SDS011;9750;48.730;10.294;2023-06-04T02:20:51;3.73;;;2.60;;
19231;SDS011;9750;48.730;10.294;2023-06-04T02:23:19;5.47;;;2.63;;
19231;SDS011;9750;48.730;10.294;2023-06-04T02:25:46;2.73;;;2.40;;
19231;SDS011;9750;48.730;10.294;2023-06-04T02:28:14;3.63;;;2.50;;
19231;SDS011;9750;48.730;10.294;2023-06-04T02:30:43;3.30;;;2.90;;
19231;SDS011;9750;48.730;10.294;2023-06-04T02:33:11;3.27;;;2.73;;
19231;SDS011;9750;48.730;10.294;2023-06-04T02:35:39;3.27;;;2.40;;
19231;SDS011;9750;48.730;10.294;2023-06-04T02:38:07;3.50;;;2.50;;
19231;SDS011;9750;48.730;10.294;2023-06-04T02:40:35;3.33;;;2.57;;
19231;SDS011;9750;48.730;10.294;2023-06-04T02:43:02;3.83;;;2.73;;
19231;SDS011;9750;48.730;10.294;2023-06-04T02:45:29;3.23;;;2.80;;
19231;SDS011;9750;48.730;10.294;2023-06-04T02:47:56;4.80;;;2.60;;
19231;SDS011;9750;48.730;10.294;2023-06-04T02:50:24;5.20;;;2.50;;
19231;SDS011;9750;48.730;10.294;2023-06-04T02:52:51;4.10;;;2.63;;
19231;SDS011;9750;48.730;10.294;2023-06-04T02:55:20;3.33;;;2.50;;
19231;SDS011;9750;48.730;10.294;2023-06-04T02:57:47;4.00;;;2.20;;
19231;SDS011;9750;48.730;10.294;2023-06-04T03:00:17;3.20;;;2.90;;
19231;SDS011;9750;48.730;10.294;2023-06-04T03:02:45;5.17;;;2.70;;
19231;SDS011;9750;48.730;10.294;2023-06-04T03:05:14;4.27;;;2.40;;
19231;SDS011;9750;48.730;10.294;2023-06-04T03:07:44;2.90;;;2.60;;
19231;SDS011;9750;48.730;10.294;2023-06-04T03:10:12;2.70;;;2.50;;
19231;SDS011;9750;48.730;10.294;2023-06-04T03:12:41;3.40;;;2.53;;
19231;SDS011;9750;48.730;10.294;2023-06-04T03:15:09;3.93;;;2.50;;
19231;SDS011;9750;48.730;10.294;2023-06-04T03:17:36;4.03;;;2.70;;
19231;SDS011;9750;48.730;10.294;2023-06-04T03:20:04;4.07;;;2.40;;
19231;SDS011;9750;48.730;10.294;2023-06-04T03:22:33;3.07;;;2.77;;
19231;SDS011;9750;48.730;10.294;2023-06-04T03:25:00;5.37;;;2.83;;
19231;SDS011;9750;48.730;10.294;2023-06-04T03:27:31;3.60;;;2.80;;
19231;SDS011;9750;48.730;10.294;2023-06-04T03:30:00;3.80;;;3.03;;
19231;SDS011;9750;48.730;10.294;2023-06-04T03:32:28;3.37;;;2.87;;
19231;SDS011;9750;48.730;10.294;2023-06-04T03:34:55;5.33;;;2.77;;
19231;SDS011;9750;48.730;10.294;2023-06-04T03:37:22;3.33;;;2.90;;
19231;SDS011;9750;48.730;10.294;2023-06-04T03:39:51;3.13;;;2.57;;
19231;SDS011;9750;48.730;10.294;2023-06-04T03:42:18;3.57;;;2.70;;
19231;SDS011;9750;48.730;10.294;2023-06-04T03:44:45;3.93;;;2.50;;
19231;SDS011;9750;48.730;10.294;2023-06-04T03:47:14;5.67;;;2.70;;
19231;SDS011;9750;48.730;10.294;2023-06-04T03:49:49;3.37;;;2.63;;
19231;SDS011;9750;48.730;10.294;2023-06-04T03:52:17;4.63;;;2.60;;
19231;SDS011;9750;48.730;10.294;2023-06-04T03:54:44;5.47;;;2.80;;
19231;SDS011;9750;48.730;10.294;2023-06-04T03:57:11;4.83;;;2.87;;
19231;SDS011;9750;48.730;10.294;2023-06-04T03:59:38;3.43;;;2.97;;
19231;SDS011;9750;48.730;10.294;2023-06-04T04:02:06;3.60;;;3.10;;
19231;SDS011;9750;48.730;10.294;2023-06-04T04:04:34;4.87;;;3.13;;
19231;SDS011;9750;48.730;10.294;2023-06-04T04:07:01;4.90;;;2.90;;
19231;SDS011;9750;48.730;10.294;2023-06-04T04:09:29;2.90;;;2.60;;
19231;SDS011;9750;48.730;10.294;2023-06-04T04:11:56;13.40;;;2.90;;
19231;SDS011;9750;48.730;10.294;2023-06-04T04:14:23;3.63;;;2.80;;
19231;SDS011;9750;48.730;10.294;2023-06-04T04:16:50;5.37;;;2.70;;
19231;SDS011;9750;48.730;10.294;2023-06-04T04:19:17;6.27;;;4.70;;
19231;SDS011;9750;48.730;10.294;2023-06-04T04:21:47;4.60;;;3.70;;
19231;SDS011;9750;48.730;10.294;2023-06-04T04:24:21;6.57;;;2.87;;
19231;SDS011;9750;48.730;10.294;2023-06-04T04:29:55;5.90;;;2.73;;
19231;SDS011;9750;48.730;10.294;2023-06-04T04:32:25;2.90;;;2.47;;
19231;SDS011;9750;48.730;10.294;2023-06-04T04:34:52;3.57;;;2.57;;
19231;SDS011;9750;48.730;10.294;2023-06-04T04:37:22;2.90;;;2.57;;
19231;SDS011;9750;48.730;10.294;2023-06-04T04:39:49;4.07;;;2.77;;
19231;SDS011;9750;48.730;10.294;2023-06-04T04:42:18;3.10;;;2.73;;
19231;SDS011;9750;48.730;10.294;2023-06-04T04:44:45;3.40;;;2.50;;
19231;SDS011;9750;48.730;10.294;2023-06-04T04:47:14;3.17;;;2.53;;
19231;SDS011;9750;48.730;10.294;2023-06-04T04:49:41;5.23;;;2.60;;
19231;SDS011;9750;48.730;10.294;2023-06-04T04:52:08;5.43;;;2.37;;
19231;SDS011;9750;48.730;10.294;2023-06-04T04:54:37;3.77;;;2.77;;
19231;SDS011;9750;48.730;10.294;2023-06-04T04:57:04;2.60;;;2.40;;
19231;SDS011;9750;48.730;10.294;2023-06-04T04:59:32;3.73;;;2.60;;
19231;SDS011;9750;48.730;10.294;2023-06-04T05:01:59;3.47;;;2.80;;
19231;SDS011;9750;48.730;10.294;2023-06-04T05:04:27;4.03;;;2.50;;
19231;SDS011;9750;48.730;10.294;2023-06-04T05:06:54;5.63;;;2.73;;
19231;SDS011;9750;48.730;10.294;2023-06-04T05:09:22;4.07;;;2.83;;
19231;SDS011;9750;48.730;10.294;2023-06-04T05:11:50;4.23;;;2.50;;
19231;SDS011;9750;48.730;10.294;2023-06-04T05:14:17;5.03;;;3.07;;
19231;SDS011;9750;48.730;10.294;2023-06-04T05:16:45;4.73;;;2.93;;
19231;SDS011;9750;48.730;10.294;2023-06-04T05:19:13;3.53;;;2.80;;
19231;SDS011;9750;48.730;10.294;2023-06-04T05:21:41;3.67;;;2.20;;
19231;SDS011;9750;48.730;10.294;2023-06-04T05:24:09;3.03;;;2.53;;
19231;SDS011;9750;48.730;10.294;2023-06-04T05:26:36;3.40;;;2.60;;
19231;SDS011;9750;48.730;10.294;2023-06-04T05:29:06;3.60;;;2.30;;
19231;SDS011;9750;48.730;10.294;2023-06-04T05:31:34;4.13;;;2.67;;
19231;SDS011;9750;48.730;10.294;2023-06-04T05:34:02;2.80;;;2.47;;
19231;SDS011;9750;48.730;10.294;2023-06-04T05:36:30;3.40;;;2.30;;
19231;SDS011;9750;48.730;10.294;2023-06-04T05:38:57;3.37;;;2.57;;
19231;SDS011;9750;48.730;10.294;2023-06-04T05:41:25;3.43;;;2.30;;
19231;SDS011;9750;48.730;10.294;2023-06-04T05:43:52;3.70;;;2.37;;
19231;SDS011;9750;48.730;10.294;2023-06-04T05:46:21;5.80;;;2.93;;
19231;SDS011;9750;48.730;10.294;2023-06-04T05:48:49;5.30;;;2.90;;
19231;SDS011;9750;48.730;10.294;2023-06-04T05:51:17;4.00;;;2.90;;
19231;SDS011;9750;48.730;10.294;2023-06-04T05:53:44;4.83;;;2.83;;
19231;SDS011;9750;48.730;10.294;2023-06-04T05:56:11;5.20;;;2.70;;
19231;SDS011;9750;48.730;10.294;2023-06-04T05:58:39;4.53;;;2.63;;
19231;SDS011;9750;48.730;10.294;2023-06-04T06:01:06;4.87;;;2.80;;
19231;SDS011;9750;48.730;10.294;2023-06-04T06:03:35;5.27;;;3.03;;
19231;SDS011;9750;48.730;10.294;2023-06-04T06:06:02;4.03;;;2.60;;
19231;SDS011;9750;48.730;10.294;2023-06-04T06:08:30;2.60;;;2.40;;
19231;SDS011;9750;48.730;10.294;2023-06-04T06:10:58;3.77;;;2.70;;
19231;SDS011;9750;48.730;10.294;2023-06-04T06:13:25;6.43;;;3.30;;
19231;SDS011;9750;48.730;10.294;2023-06-04T06:15:54;5.33;;;2.60;;
19231;SDS011;9750;48.730;10.294;2023-06-04T06:18:22;5.10;;;3.00;;
19231;SDS011;9750;48.730;10.294;2023-06-04T06:20:51;3.47;;;2.43;;
19231;SDS011;9750;48.730;10.294;2023-06-04T06:23:18;6.03;;;3.30;;
19231;SDS011;9750;48.730;10.294;2023-06-04T06:25:47;4.00;;;2.67;;
19231;SDS011;9750;48.730;10.294;2023-06-04T06:28:17;7.87;;;2.87;;
19231;SDS011;9750;48.730;10.294;2023-06-04T06:30:44;3.83;;;2.73;;
19231;SDS011;9750;48.730;10.294;2023-06-04T06:33:12;7.20;;;2.77;;
19231;SDS011;9750;48.730;10.294;2023-06-04T06:35:40;4.33;;;2.90;;
19231;SDS011;9750;48.730;10.294;2023-06-04T06:38:08;5.30;;;3.20;;
19231;SDS011;9750;48.730;10.294;2023-06-04T06:40:36;4.83;;;3.07;;
19231;SDS011;9750;48.730;10.294;2023-06-04T06:43:03;5.43;;;3.20;;
19231;SDS011;9750;48.730;10.294;2023-06-04T06:45:30;4.43;;;3.10;;
19231;SDS011;9750;48.730;10.294;2023-06-04T06:47:57;4.37;;;2.80;;
19231;SDS011;9750;48.730;10.294;2023-06-04T06:50:24;6.63;;;3.03;;
19231;SDS011;9750;48.730;10.294;2023-06-04T06:52:52;3.67;;;2.90;;
19231;SDS011;9750;48.730;10.294;2023-06-04T06:55:20;4.50;;;2.90;;
19231;SDS011;9750;48.730;10.294;2023-06-04T06:57:48;3.23;;;2.70;;
19231;SDS011;9750;48.730;10.294;2023-06-04T07:00:15;4.00;;;3.07;;
19231;SDS011;9750;48.730;10.294;2023-06-04T07:02:44;4.03;;;2.80;;
19231;SDS011;9750;48.730;10.294;2023-06-04T07:05:11;3.57;;;2.93;;
19231;SDS011;9750;48.730;10.294;2023-06-04T07:07:39;4.13;;;2.70;;
19231;SDS011;9750;48.730;10.294;2023-06-04T07:10:07;5.07;;;2.90;;
19231;SDS011;9750;48.730;10.294;2023-06-04T07:12:36;5.33;;;2.97;;
19231;SDS011;9750;48.730;10.294;2023-06-04T07:15:04;5.40;;;3.10;;
19231;SDS011;9750;48.730;10.294;2023-06-04T07:17:33;4.50;;;2.97;;
19231;SDS011;9750;48.730;10.294;2023-06-04T07:20:00;3.90;;;2.93;;
19231;SDS011;9750;48.730;10.294;2023-06-04T07:22:29;5.40;;;3.10;;
19231;SDS011;9750;48.730;10.294;2023-06-04T07:24:56;3.30;;;2.90;;
19231;SDS011;9750;48.730;10.294;2023-06-04T07:27:23;4.07;;;2.87;;
19231;SDS011;9750;48.730;10.294;2023-06-04T07:29:53;4.47;;;3.17;;
19231;SDS011;9750;48.730;10.294;2023-06-04T07:32:20;3.23;;;2.90;;
19231;SDS011;9750;48.730;10.294;2023-06-04T07:34:47;6.33;;;3.23;;
19231;SDS011;9750;48.730;10.294;2023-06-04T07:37:14;5.83;;;3.37;;
19231;SDS011;9750;48.730;10.294;2023-06-04T07:39:42;5.83;;;3.10;;
19231;SDS011;9750;48.730;10.294;2023-06-04T07:42:09;4.23;;;2.80;;
19231;SDS011;9750;48.730;10.294;2023-06-04T07:44:36;5.00;;;2.90;;
19231;SDS011;9750;48.730;10.294;2023-06-04T07:47:05;6.33;;;3.47;;
19231;SDS011;9750;48.730;10.294;2023-06-04T07:49:33;5.53;;;3.37;;
19231;SDS011;9750;48.730;10.294;2023-06-04T07:52:00;3.97;;;3.00;;
19231;SDS011;9750;48.730;10.294;2023-06-04T07:54:27;5.07;;;2.97;;
19231;SDS011;9750;48.730;10.294;2023-06-04T07:56:54;4.83;;;3.03;;
19231;SDS011;9750;48.730;10.294;2023-06-04T07:59:22;3.53;;;2.97;;
19231;SDS011;9750;48.730;10.294;2023-06-04T08:01:50;4.47;;;2.97;;
19231;SDS011;9750;48.730;10.294;2023-06-04T08:04:19;4.13;;;3.20;;
19231;SDS011;9750;48.730;10.294;2023-06-04T08:06:46;4.33;;;3.20;;
19231;SDS011;9750;48.730;10.294;2023-06-04T08:09:14;4.20;;;3.17;;
19231;SDS011;9750;48.730;10.294;2023-06-04T08:11:42;4.77;;;3.00;;
19231;SDS011;9750;48.730;10.294;2023-06-04T08:14:10;3.70;;;2.80;;
19231;SDS011;9750;48.730;10.294;2023-06-04T08:16:38;5.87;;;3.20;;
19231;SDS011;9750;48.730;10.294;2023-06-04T08:19:05;6.67;;;3.30;;
19231;SDS011;9750;48.730;10.294;2023-06-04T08:21:34;5.00;;;3.10;;
19231;SDS011;9750;48.730;10.294;2023-06-04T08:24:02;3.33;;;2.83;;
19231;SDS011;9750;48.730;10.294;2023-06-04T08:26:29;5.40;;;3.10;;
19231;SDS011;9750;48.730;10.294;2023-06-04T08:28:57;4.07;;;3.03;;
19231;SDS011;9750;48.730;10.294;2023-06-04T08:31:24;3.37;;;3.00;;
19231;SDS011;9750;48.730;10.294;2023-06-04T08:33:52;5.13;;;2.90;;
19231;SDS011;9750;48.730;10.294;2023-06-04T08:36:19;4.10;;;2.97;;
19231;SDS011;9750;48.730;10.294;2023-06-04T08:38:48;6.33;;;2.80;;
19231;SDS011;9750;48.730;10.294;2023-06-04T08:41:20;4.20;;;3.10;;
19231;SDS011;9750;48.730;10.294;2023-06-04T08:43:51;4.67;;;3.03;;
19231;SDS011;9750;48.730;10.294;2023-06-04T08:46:21;6.73;;;3.07;;
19231;SDS011;9750;48.730;10.294;2023-06-04T08:48:50;4.20;;;3.30;;
19231;SDS011;9750;48.730;10.294;2023-06-04T08:51:18;4.43;;;3.10;;
19231;SDS011;9750;48.730;10.294;2023-06-04T08:53:45;5.30;;;2.97;;
19231;SDS011;9750;48.730;10.294;2023-06-04T08:56:16;5.43;;;3.00;;
19231;SDS011;9750;48.730;10.294;2023-06-04T08:58:45;3.63;;;2.70;;
19231;SDS011;9750;48.730;10.294;2023-06-04T09:01:14;4.73;;;3.23;;
19231;SDS011;9750;48.730;10.294;2023-06-04T09:03:43;7.88;;;3.83;;
19231;SDS011;9750;48.730;10.294;2023-06-04T09:06:12;4.78;;;3.10;;
19231;SDS011;9750;48.730;10.294;2023-06-04T09:08:41;3.95;;;3.25;;
19231;SDS011;9750;48.730;10.294;2023-06-04T09:11:11;4.18;;;3.20;;
19231;SDS011;9750;48.730;10.294;2023-06-04T09:13:43;6.72;;;3.55;;
19231;SDS011;9750;48.730;10.294;2023-06-04T09:16:14;3.90;;;3.38;;
19231;SDS011;9750;48.730;10.294;2023-06-04T09:18:42;5.65;;;3.10;;
19231;SDS011;9750;48.730;10.294;2023-06-04T09:21:11;6.22;;;3.40;;
19231;SDS011;9750;48.730;10.294;2023-06-04T09:23:43;5.60;;;3.60;;
19231;SDS011;9750;48.730;10.294;2023-06-04T09:26:11;4.47;;;3.42;;
19231;SDS011;9750;48.730;10.294;2023-06-04T09:31:25;5.70;;;3.50;;
19231;SDS011;9750;48.730;10.294;2023-06-04T09:33:54;4.10;;;3.60;;
19231;SDS011;9750;48.730;10.294;2023-06-04T09:36:21;4.63;;;3.17;;
19231;SDS011;9750;48.730;10.294;2023-06-04T09:38:48;5.07;;;3.25;;
19231;SDS011;9750;48.730;10.294;2023-06-04T09:41:17;4.80;;;3.20;;
19231;SDS011;9750;48.730;10.294;2023-06-04T09:43:46;10.30;;;3.55;;
19231;SDS011;9750;48.730;10.294;2023-06-04T09:46:16;4.03;;;3.60;;
19231;SDS011;9750;48.730;10.294;2023-06-04T09:48:44;4.95;;;3.25;;
19231;SDS011;9750;48.730;10.294;2023-06-04T09:51:12;4.63;;;3.38;;
19231;SDS011;9750;48.730;10.294;2023-06-04T09:53:52;6.38;;;3.65;;
19231;SDS011;9750;48.730;10.294;2023-06-04T09:56:20;6.47;;;3.40;;
19231;SDS011;9750;48.730;10.294;2023-06-04T09:58:47;6.35;;;3.38;;
19231;SDS011;9750;48.730;10.294;2023-06-04T10:01:17;5.00;;;3.40;;
19231;SDS011;9750;48.730;10.294;2023-06-04T10:03:46;4.90;;;3.45;;
19231;SDS011;9750;48.730;10.294;2023-06-04T10:06:16;5.97;;;3.67;;
19231;SDS011;9750;48.730;10.294;2023-06-04T10:08:45;5.25;;;3.90;;
19231;SDS011;9750;48.730;10.294;2023-06-04T10:11:14;5.57;;;3.35;;
19231;SDS011;9750;48.730;10.294;2023-06-04T10:13:48;4.93;;;3.80;;
19231;SDS011;9750;48.730;10.294;2023-06-04T10:16:22;4.32;;;3.47;;
19231;SDS011;9750;48.730;10.294;2023-06-04T10:18:52;5.60;;;3.92;;
19231;SDS011;9750;48.730;10.294;2023-06-04T10:21:21;4.85;;;3.88;;
19231;SDS011;9750;48.730;10.294;2023-06-04T10:23:49;4.45;;;3.88;;
19231;SDS011;9750;48.730;10.294;2023-06-04T10:26:16;5.43;;;3.85;;
19231;SDS011;9750;48.730;10.294;2023-06-04T10:28:44;4.45;;;3.10;;
19231;SDS011;9750;48.730;10.294;2023-06-04T10:31:12;4.75;;;3.80;;
19231;SDS011;9750;48.730;10.294;2023-06-04T10:33:40;8.20;;;4.00;;
19231;SDS011;9750;48.730;10.294;2023-06-04T10:36:17;6.43;;;3.80;;
19231;SDS011;9750;48.730;10.294;2023-06-04T10:38:46;5.03;;;4.00;;
19231;SDS011;9750;48.730;10.294;2023-06-04T10:41:13;4.93;;;3.80;;
19231;SDS011;9750;48.730;10.294;2023-06-04T10:43:41;4.13;;;3.72;;
19231;SDS011;9750;48.730;10.294;2023-06-04T10:46:12;5.32;;;4.07;;
19231;SDS011;9750;48.730;10.294;2023-06-04T10:48:51;6.93;;;4.22;;
19231;SDS011;9750;48.730;10.294;2023-06-04T10:51:28;4.53;;;3.75;;
19231;SDS011;9750;48.730;10.294;2023-06-04T10:53:57;4.80;;;4.30;;
19231;SDS011;9750;48.730;10.294;2023-06-04T10:56:25;5.05;;;3.63;;
19231;SDS011;9750;48.730;10.294;2023-06-04T10:58:53;4.82;;;4.25;;
19231;SDS011;9750;48.730;10.294;2023-06-04T11:01:24;4.22;;;3.83;;
19231;SDS011;9750;48.730;10.294;2023-06-04T11:03:53;4.20;;;3.75;;
19231;SDS011;9750;48.730;10.294;2023-06-04T11:06:21;6.75;;;4.10;;
19231;SDS011;9750;48.730;10.294;2023-06-04T11:09:00;6.57;;;4.03;;
19231;SDS011;9750;48.730;10.294;2023-06-04T11:11:29;8.73;;;4.00;;
19231;SDS011;9750;48.730;10.294;2023-06-04T11:13:56;4.45;;;3.75;;
19231;SDS011;9750;48.730;10.294;2023-06-04T11:16:34;6.82;;;4.05;;
19231;SDS011;9750;48.730;10.294;2023-06-04T11:19:02;6.35;;;4.30;;
19231;SDS011;9750;48.730;10.294;2023-06-04T11:21:30;7.00;;;4.93;;
19231;SDS011;9750;48.730;10.294;2023-06-04T11:24:01;5.53;;;4.43;;
19231;SDS011;9750;48.730;10.294;2023-06-04T11:26:30;5.80;;;3.97;;
19231;SDS011;9750;48.730;10.294;2023-06-04T11:28:58;4.78;;;3.85;;
19231;SDS011;9750;48.730;10.294;2023-06-04T11:31:25;6.88;;;4.07;;
19231;SDS011;9750;48.730;10.294;2023-06-04T11:33:53;5.57;;;3.58;;
19231;SDS011;9750;48.730;10.294;2023-06-04T11:36:25;6.57;;;4.38;;
19231;SDS011;9750;48.730;10.294;2023-06-04T11:38:54;5.55;;;4.35;;
19231;SDS011;9750;48.730;10.294;2023-06-04T11:41:22;4.25;;;3.85;;
19231;SDS011;9750;48.730;10.294;2023-06-04T11:43:50;4.35;;;3.85;;
19231;SDS011;9750;48.730;10.294;2023-06-04T11:46:17;4.55;;;4.00;;
19231;SDS011;9750;48.730;10.294;2023-06-04T11:48:45;5.75;;;4.20;;
19231;SDS011;9750;48.730;10.294;2023-06-04T11:51:13;6.20;;;4.43;;
19231;SDS011;9750;48.730;10.294;2023-06-04T11:53:42;6.13;;;4.30;;
19231;SDS011;9750;48.730;10.294;2023-06-04T11:56:09;7.15;;;4.35;;
19231;SDS011;9750;48.730;10.294;2023-06-04T11:58:37;4.30;;;3.90;;
19231;SDS011;9750;48.730;10.294;2023-06-04T12:01:05;4.70;;;3.88;;
19231;SDS011;9750;48.730;10.294;2023-06-04T12:03:34;6.00;;;4.15;;
19231;SDS011;9750;48.730;10.294;2023-06-04T12:06:10;4.55;;;4.03;;
19231;SDS011;9750;48.730;10.294;2023-06-04T12:08:50;4.90;;;4.05;;
19231;SDS011;9750;48.730;10.294;2023-06-04T12:11:27;5.22;;;4.40;;
19231;SDS011;9750;48.730;10.294;2023-06-04T12:13:56;4.85;;;4.30;;
19231;SDS011;9750;48.730;10.294;2023-06-04T12:16:25;5.13;;;4.63;;
19231;SDS011;9750;48.730;10.294;2023-06-04T12:19:03;5.72;;;4.20;;
19231;SDS011;9750;48.730;10.294;2023-06-04T12:21:32;4.80;;;4.30;;
19231;SDS011;9750;48.730;10.294;2023-06-04T12:24:08;5.28;;;4.20;;
19231;SDS011;9750;48.730;10.294;2023-06-04T12:29:58;5.47;;;4.32;;
19231;SDS011;9750;48.730;10.294;2023-06-04T12:32:26;4.97;;;4.47;;
19231;SDS011;9750;48.730;10.294;2023-06-04T12:34:54;4.20;;;3.80;;
19231;SDS011;9750;48.730;10.294;2023-06-04T12:40:45;4.63;;;4.20;;
19231;SDS011;9750;48.730;10.294;2023-06-04T12:43:12;4.68;;;4.00;;
19231;SDS011;9750;48.730;10.294;2023-06-04T12:45:40;4.07;;;3.67;;
19231;SDS011;9750;48.730;10.294;2023-06-04T12:48:07;5.75;;;3.95;;
19231;SDS011;9750;48.730;10.294;2023-06-04T12:50:34;4.70;;;4.13;;
19231;SDS011;9750;48.730;10.294;2023-06-04T12:53:01;4.55;;;4.15;;
19231;SDS011;9750;48.730;10.294;2023-06-04T12:55:29;5.82;;;4.20;;
19231;SDS011;9750;48.730;10.294;2023-06-04T12:57:58;5.95;;;4.35;;
19231;SDS011;9750;48.730;10.294;2023-06-04T13:00:26;6.00;;;4.70;;
19231;SDS011;9750;48.730;10.294;2023-06-04T13:02:53;4.90;;;4.47;;
19231;SDS011;9750;48.730;10.294;2023-06-04T13:05:20;4.72;;;4.03;;
19231;SDS011;9750;48.730;10.294;2023-06-04T13:07:48;5.88;;;4.13;;
19231;SDS011;9750;48.730;10.294;2023-06-04T13:10:15;4.97;;;4.47;;
19231;SDS011;9750;48.730;10.294;2023-06-04T13:12:42;5.95;;;4.13;;
19231;SDS011;9750;48.730;10.294;2023-06-04T13:15:11;5.03;;;4.18;;
19231;SDS011;9750;48.730;10.294;2023-06-04T13:17:38;5.18;;;4.30;;
19231;SDS011;9750;48.730;10.294;2023-06-04T13:20:06;8.27;;;4.55;;
19231;SDS011;9750;48.730;10.294;2023-06-04T13:22:34;5.38;;;4.10;;
19231;SDS011;9750;48.730;10.294;2023-06-04T13:25:02;5.25;;;4.60;;
19231;SDS011;9750;48.730;10.294;2023-06-04T13:27:29;4.88;;;4.10;;
19231;SDS011;9750;48.730;10.294;2023-06-04T13:29:57;5.65;;;4.65;;
19231;SDS011;9750;48.730;10.294;2023-06-04T13:32:25;4.82;;;4.32;;
19231;SDS011;9750;48.730;10.294;2023-06-04T13:34:53;4.65;;;4.20;;
19231;SDS011;9750;48.730;10.294;2023-06-04T13:37:20;5.05;;;4.35;;
19231;SDS011;9750;48.730;10.294;2023-06-04T13:39:47;5.32;;;4.15;;
19231;SDS011;9750;48.730;10.294;2023-06-04T13:42:15;4.90;;;4.40;;
19231;SDS011;9750;48.730;10.294;2023-06-04T13:44:42;7.28;;;4.30;;
19231;SDS011;9750;48.730;10.294;2023-06-04T13:47:10;5.90;;;4.50;;
19231;SDS011;9750;48.730;10.294;2023-06-04T13:49:38;5.18;;;4.68;;
19231;SDS011;9750;48.730;10.294;2023-06-04T13:52:05;4.97;;;4.50;;
19231;SDS011;9750;48.730;10.294;2023-06-04T13:54:33;7.07;;;4.38;;
19231;SDS011;9750;48.730;10.294;2023-06-04T13:57:01;6.22;;;4.20;;
19231;SDS011;9750;48.730;10.294;2023-06-04T13:59:31;5.47;;;4.82;;
19231;SDS011;9750;48.730;10.294;2023-06-04T14:01:59;4.57;;;4.18;;
19231;SDS011;9750;48.730;10.294;2023-06-04T14:04:26;5.78;;;4.30;;
19231;SDS011;9750;48.730;10.294;2023-06-04T14:06:55;7.20;;;4.43;;
19231;SDS011;9750;48.730;10.294;2023-06-04T14:09:22;6.85;;;4.10;;
19231;SDS011;9750;48.730;10.294;2023-06-04T14:11:50;4.90;;;3.90;;
19231;SDS011;9750;48.730;10.294;2023-06-04T14:14:17;5.72;;;4.00;;
19231;SDS011;9750;48.730;10.294;2023-06-04T14:16:44;5.50;;;4.90;;
19231;SDS011;9750;48.730;10.294;2023-06-04T14:19:12;4.80;;;3.88;;
19231;SDS011;9750;48.730;10.294;2023-06-04T14:21:40;4.53;;;4.13;;
19231;SDS011;9750;48.730;10.294;2023-06-04T14:24:08;7.95;;;3.65;;
19231;SDS011;9750;48.730;10.294;2023-06-04T14:26:36;4.35;;;3.95;;
19231;SDS011;9750;48.730;10.294;2023-06-04T14:29:04;4.63;;;4.22;;
19231;SDS011;9750;48.730;10.294;2023-06-04T14:31:31;6.00;;;4.30;;
19231;SDS011;9750;48.730;10.294;2023-06-04T14:33:58;4.78;;;4.20;;
19231;SDS011;9750;48.730;10.294;2023-06-04T14:36:25;5.50;;;4.25;;
19231;SDS011;9750;48.730;10.294;2023-06-04T14:38:53;6.25;;;4.32;;
19231;SDS011;9750;48.730;10.294;2023-06-04T14:41:21;5.32;;;4.30;;
19231;SDS011;9750;48.730;10.294;2023-06-04T14:43:48;4.53;;;4.13;;
19231;SDS011;9750;48.730;10.294;2023-06-04T14:46:16;4.20;;;3.80;;
19231;SDS011;9750;48.730;10.294;2023-06-04T14:48:43;4.28;;;3.88;;
19231;SDS011;9750;48.730;10.294;2023-06-04T14:51:10;5.30;;;3.88;;
19231;SDS011;9750;48.730;10.294;2023-06-04T14:53:38;5.60;;;4.63;;
19231;SDS011;9750;48.730;10.294;2023-06-04T14:56:05;5.03;;;3.78;;
19231;SDS011;9750;48.730;10.294;2023-06-04T14:58:34;4.53;;;4.13;;
19231;SDS011;9750;48.730;10.294;2023-06-04T15:01:01;7.47;;;4.38;;
19231;SDS011;9750;48.730;10.294;2023-06-04T15:03:29;4.95;;;4.43;;
19231;SDS011;9750;48.730;10.294;2023-06-04T15:05:56;5.20;;;4.05;;
19231;SDS011;9750;48.730;10.294;2023-06-04T15:08:23;5.63;;;4.40;;